sensor_id;sensor_type;location;lat;lon;timestamp;temperature;humidity
11091;DHT22;5599;52.210;21.046;2023-01-25T00:02:17;3.60;99.90
11091;DHT22;5599;52.210;21.046;2023-01-25T00:04:46;3.50;46.20
11091;DHT22;5599;52.210;21.046;2023-01-25T00:07:16;3.50;99.90
11091;DHT22;5599;52.210;21.046;2023-01-25T00:09:45;3.50;99.90
11091;DHT22;5599;52.210;21.046;2023-01-25T00:12:15;3.40;99.90
11091;DHT22;5599;52.210;21.046;2023-01-25T00:14:45;3.40;1.00
11091;DHT22;5599;52.210;21.046;2023-01-25T00:17:14;3.40;1.00
11091;DHT22;5599;52.210;21.046;2023-01-25T00:19:43;3.40;99.90
11091;DHT22;5599;52.210;21.046;2023-01-25T00:22:12;3.40;25.00
11091;DHT22;5599;52.210;21.046;2023-01-25T00:24:41;3.30;99.90
11091;DHT22;5599;52.210;21.046;2023-01-25T00:27:11;3.40;1.00
11091;DHT22;5599;52.210;21.046;2023-01-25T00:29:41;3.30;1.00
11091;DHT22;5599;52.210;21.046;2023-01-25T00:32:46;3.40;1.00
11091;DHT22;5599;52.210;21.046;2023-01-25T00:35:17;3.30;99.90
11091;DHT22;5599;52.210;21.046;2023-01-25T00:37:47;3.30;99.90
11091;DHT22;5599;52.210;21.046;2023-01-25T00:40:17;3.20;99.90
11091;DHT22;5599;52.210;21.046;2023-01-25T00:42:46;3.30;1.00
11091;DHT22;5599;52.210;21.046;2023-01-25T00:45:17;3.30;1.00
11091;DHT22;5599;52.210;21.046;2023-01-25T00:47:47;3.30;1.00
11091;DHT22;5599;52.210;21.046;2023-01-25T00:50:16;3.30;1.00
11091;DHT22;5599;52.210;21.046;2023-01-25T00:52:45;3.30;99.90
11091;DHT22;5599;52.210;21.046;2023-01-25T00:55:14;3.30;99.90
11091;DHT22;5599;52.210;21.046;2023-01-25T00:57:44;3.30;1.00
11091;DHT22;5599;52.210;21.046;2023-01-25T01:00:14;3.20;1.00
11091;DHT22;5599;52.210;21.046;2023-01-25T01:02:46;3.20;1.00
11091;DHT22;5599;52.210;21.046;2023-01-25T01:05:16;3.20;62.90
11091;DHT22;5599;52.210;21.046;2023-01-25T01:07:48;3.10;99.90
11091;DHT22;5599;52.210;21.046;2023-01-25T01:10:18;3.10;99.90
11091;DHT22;5599;52.210;21.046;2023-01-25T01:12:50;3.00;99.90
11091;DHT22;5599;52.210;21.046;2023-01-25T01:15:19;3.00;99.90
11091;DHT22;5599;52.210;21.046;2023-01-25T01:17:50;3.10;99.90
11091;DHT22;5599;52.210;21.046;2023-01-25T01:20:19;3.10;99.90
11091;DHT22;5599;52.210;21.046;2023-01-25T01:22:51;3.10;1.00
11091;DHT22;5599;52.210;21.046;2023-01-25T01:25:22;3.10;1.00
11091;DHT22;5599;52.210;21.046;2023-01-25T01:27:51;2.90;1.00
11091;DHT22;5599;52.210;21.046;2023-01-25T01:30:20;2.90;99.90
11091;DHT22;5599;52.210;21.046;2023-01-25T01:32:52;3.00;99.90
11091;DHT22;5599;52.210;21.046;2023-01-25T01:35:21;2.90;99.90
11091;DHT22;5599;52.210;21.046;2023-01-25T01:37:51;2.80;1.00
11091;DHT22;5599;52.210;21.046;2023-01-25T01:40:20;2.80;99.90
11091;DHT22;5599;52.210;21.046;2023-01-25T01:42:59;2.80;1.00
11091;DHT22;5599;52.210;21.046;2023-01-25T01:45:50;2.80;99.90
11091;DHT22;5599;52.210;21.046;2023-01-25T01:48:32;2.70;99.90
11091;DHT22;5599;52.210;21.046;2023-01-25T01:51:04;2.70;1.00
11091;DHT22;5599;52.210;21.046;2023-01-25T01:53:34;2.70;88.00
11091;DHT22;5599;52.210;21.046;2023-01-25T01:56:06;2.70;99.90
11091;DHT22;5599;52.210;21.046;2023-01-25T01:58:37;2.70;46.70
11091;DHT22;5599;52.210;21.046;2023-01-25T02:01:08;2.60;99.90
11091;DHT22;5599;52.210;21.046;2023-01-25T02:03:39;2.70;99.90
11091;DHT22;5599;52.210;21.046;2023-01-25T02:06:12;2.70;1.00
11091;DHT22;5599;52.210;21.046;2023-01-25T02:08:43;2.60;99.90
11091;DHT22;5599;52.210;21.046;2023-01-25T02:11:13;2.70;99.90
11091;DHT22;5599;52.210;21.046;2023-01-25T02:13:43;2.70;99.90
11091;DHT22;5599;52.210;21.046;2023-01-25T02:16:16;2.70;99.90
11091;DHT22;5599;52.210;21.046;2023-01-25T02:18:47;2.80;99.90
11091;DHT22;5599;52.210;21.046;2023-01-25T02:21:17;2.70;99.90
11091;DHT22;5599;52.210;21.046;2023-01-25T02:23:51;2.80;99.90
11091;DHT22;5599;52.210;21.046;2023-01-25T02:26:23;2.70;1.00
11091;DHT22;5599;52.210;21.046;2023-01-25T02:28:55;2.60;99.90
11091;DHT22;5599;52.210;21.046;2023-01-25T02:31:26;2.50;99.90
11091;DHT22;5599;52.210;21.046;2023-01-25T02:33:55;2.50;99.90
11091;DHT22;5599;52.210;21.046;2023-01-25T02:36:26;2.50;99.90
11091;DHT22;5599;52.210;21.046;2023-01-25T02:38:59;2.40;1.00
11091;DHT22;5599;52.210;21.046;2023-01-25T02:41:35;2.40;1.00
11091;DHT22;5599;52.210;21.046;2023-01-25T02:44:06;2.30;1.00
11091;DHT22;5599;52.210;21.046;2023-01-25T02:46:37;2.40;99.90
11091;DHT22;5599;52.210;21.046;2023-01-25T02:49:08;2.40;99.90
11091;DHT22;5599;52.210;21.046;2023-01-25T02:51:40;2.40;1.00
11091;DHT22;5599;52.210;21.046;2023-01-25T02:54:11;2.40;1.00
11091;DHT22;5599;52.210;21.046;2023-01-25T02:56:42;2.50;1.00
11091;DHT22;5599;52.210;21.046;2023-01-25T02:59:11;2.50;1.00
11091;DHT22;5599;52.210;21.046;2023-01-25T03:01:45;2.50;1.00
11091;DHT22;5599;52.210;21.046;2023-01-25T03:04:15;2.50;99.30
11091;DHT22;5599;52.210;21.046;2023-01-25T03:06:44;2.50;1.00
11091;DHT22;5599;52.210;21.046;2023-01-25T03:09:15;2.50;1.00
11091;DHT22;5599;52.210;21.046;2023-01-25T03:11:49;2.40;99.90
11091;DHT22;5599;52.210;21.046;2023-01-25T03:14:20;2.40;1.00
11091;DHT22;5599;52.210;21.046;2023-01-25T03:16:50;2.30;99.90
11091;DHT22;5599;52.210;21.046;2023-01-25T03:19:22;2.30;1.00
11091;DHT22;5599;52.210;21.046;2023-01-25T03:21:51;2.30;1.00
11091;DHT22;5599;52.210;21.046;2023-01-25T03:24:20;2.30;99.90
11091;DHT22;5599;52.210;21.046;2023-01-25T03:26:52;2.30;99.90
11091;DHT22;5599;52.210;21.046;2023-01-25T03:29:54;2.20;63.80
11091;DHT22;5599;52.210;21.046;2023-01-25T03:32:26;2.10;99.90
11091;DHT22;5599;52.210;21.046;2023-01-25T03:35:00;2.00;99.90
11091;DHT22;5599;52.210;21.046;2023-01-25T03:37:30;2.00;99.90
11091;DHT22;5599;52.210;21.046;2023-01-25T03:40:00;2.00;93.70
11091;DHT22;5599;52.210;21.046;2023-01-25T03:42:32;1.90;77.30
11091;DHT22;5599;52.210;21.046;2023-01-25T03:45:03;1.90;1.00
11091;DHT22;5599;52.210;21.046;2023-01-25T03:47:33;2.00;1.00
11091;DHT22;5599;52.210;21.046;2023-01-25T03:50:04;1.90;99.90
11091;DHT22;5599;52.210;21.046;2023-01-25T03:52:33;1.90;1.00
11091;DHT22;5599;52.210;21.046;2023-01-25T03:55:08;2.00;1.00
11091;DHT22;5599;52.210;21.046;2023-01-25T03:57:42;1.90;99.90
11091;DHT22;5599;52.210;21.046;2023-01-25T04:00:12;1.90;50.00
11091;DHT22;5599;52.210;21.046;2023-01-25T04:02:44;1.90;99.90
11091;DHT22;5599;52.210;21.046;2023-01-25T04:05:17;1.80;1.00
11091;DHT22;5599;52.210;21.046;2023-01-25T04:07:48;1.90;99.90
11091;DHT22;5599;52.210;21.046;2023-01-25T04:10:24;1.90;99.90
11091;DHT22;5599;52.210;21.046;2023-01-25T04:12:55;2.00;99.90
11091;DHT22;5599;52.210;21.046;2023-01-25T04:15:25;2.00;1.00
11091;DHT22;5599;52.210;21.046;2023-01-25T04:18:06;1.90;1.00
11091;DHT22;5599;52.210;21.046;2023-01-25T04:20:36;1.90;1.00
11091;DHT22;5599;52.210;21.046;2023-01-25T04:23:08;2.00;99.90
11091;DHT22;5599;52.210;21.046;2023-01-25T04:25:38;1.90;99.90
11091;DHT22;5599;52.210;21.046;2023-01-25T04:28:13;1.90;99.90
11091;DHT22;5599;52.210;21.046;2023-01-25T04:30:42;1.80;99.90
11091;DHT22;5599;52.210;21.046;2023-01-25T04:33:11;1.80;14.80
11091;DHT22;5599;52.210;21.046;2023-01-25T04:35:44;1.80;99.90
11091;DHT22;5599;52.210;21.046;2023-01-25T04:38:15;1.70;93.50
11091;DHT22;5599;52.210;21.046;2023-01-25T04:40:45;1.70;1.00
11091;DHT22;5599;52.210;21.046;2023-01-25T04:43:16;1.70;1.00
11091;DHT22;5599;52.210;21.046;2023-01-25T04:45:45;1.70;1.00
11091;DHT22;5599;52.210;21.046;2023-01-25T04:48:23;1.70;99.90
11091;DHT22;5599;52.210;21.046;2023-01-25T04:50:56;1.80;85.30
11091;DHT22;5599;52.210;21.046;2023-01-25T04:53:26;1.80;1.00
11091;DHT22;5599;52.210;21.046;2023-01-25T04:55:59;1.80;87.30
11091;DHT22;5599;52.210;21.046;2023-01-25T04:58:35;1.80;99.90
11091;DHT22;5599;52.210;21.046;2023-01-25T05:01:04;1.80;99.90
11091;DHT22;5599;52.210;21.046;2023-01-25T05:03:34;1.80;1.00
11091;DHT22;5599;52.210;21.046;2023-01-25T05:06:06;1.80;99.90
11091;DHT22;5599;52.210;21.046;2023-01-25T05:08:36;1.80;1.00
11091;DHT22;5599;52.210;21.046;2023-01-25T05:11:05;1.80;1.00
11091;DHT22;5599;52.210;21.046;2023-01-25T05:13:55;1.80;1.00
11091;DHT22;5599;52.210;21.046;2023-01-25T05:16:31;1.70;99.90
11091;DHT22;5599;52.210;21.046;2023-01-25T05:19:01;1.70;99.90
11091;DHT22;5599;52.210;21.046;2023-01-25T05:21:46;1.60;1.00
11091;DHT22;5599;52.210;21.046;2023-01-25T05:24:36;1.60;1.00
11091;DHT22;5599;52.210;21.046;2023-01-25T05:27:12;1.60;1.00
11091;DHT22;5599;52.210;21.046;2023-01-25T05:29:54;1.60;99.90
11091;DHT22;5599;52.210;21.046;2023-01-25T05:32:39;1.70;99.90
11091;DHT22;5599;52.210;21.046;2023-01-25T05:35:08;1.70;99.90
11091;DHT22;5599;52.210;21.046;2023-01-25T05:37:38;1.70;99.90
11091;DHT22;5599;52.210;21.046;2023-01-25T05:40:15;1.70;1.00
11091;DHT22;5599;52.210;21.046;2023-01-25T05:42:44;1.60;1.00
11091;DHT22;5599;52.210;21.046;2023-01-25T05:45:22;1.60;1.00
11091;DHT22;5599;52.210;21.046;2023-01-25T05:47:52;1.60;74.90
11091;DHT22;5599;52.210;21.046;2023-01-25T05:50:22;1.50;99.90
11091;DHT22;5599;52.210;21.046;2023-01-25T05:52:59;1.50;1.00
11091;DHT22;5599;52.210;21.046;2023-01-25T05:55:29;1.40;1.00
11091;DHT22;5599;52.210;21.046;2023-01-25T05:58:03;1.40;1.00
11091;DHT22;5599;52.210;21.046;2023-01-25T06:00:34;1.40;1.00
11091;DHT22;5599;52.210;21.046;2023-01-25T06:03:04;1.40;1.00
11091;DHT22;5599;52.210;21.046;2023-01-25T06:05:35;1.50;94.60
11091;DHT22;5599;52.210;21.046;2023-01-25T06:08:05;1.50;99.90
11091;DHT22;5599;52.210;21.046;2023-01-25T06:10:47;1.50;1.00
11091;DHT22;5599;52.210;21.046;2023-01-25T06:13:17;1.60;1.00
11091;DHT22;5599;52.210;21.046;2023-01-25T06:15:52;1.70;99.90
11091;DHT22;5599;52.210;21.046;2023-01-25T06:18:40;1.70;99.90
11091;DHT22;5599;52.210;21.046;2023-01-25T06:21:21;1.70;1.00
11091;DHT22;5599;52.210;21.046;2023-01-25T06:23:51;1.70;1.00
11091;DHT22;5599;52.210;21.046;2023-01-25T06:26:20;1.60;99.90
11091;DHT22;5599;52.210;21.046;2023-01-25T06:28:49;1.60;1.00
11091;DHT22;5599;52.210;21.046;2023-01-25T06:31:21;1.60;99.90
11091;DHT22;5599;52.210;21.046;2023-01-25T06:33:51;1.60;99.90
11091;DHT22;5599;52.210;21.046;2023-01-25T06:36:22;1.60;99.90
11091;DHT22;5599;52.210;21.046;2023-01-25T06:38:51;1.70;1.00
11091;DHT22;5599;52.210;21.046;2023-01-25T06:41:21;1.60;1.00
11091;DHT22;5599;52.210;21.046;2023-01-25T06:43:51;1.60;99.90
11091;DHT22;5599;52.210;21.046;2023-01-25T06:46:22;1.60;1.00
11091;DHT22;5599;52.210;21.046;2023-01-25T06:48:51;1.50;1.00
11091;DHT22;5599;52.210;21.046;2023-01-25T06:51:20;1.50;99.90
11091;DHT22;5599;52.210;21.046;2023-01-25T06:53:50;1.40;99.90
11091;DHT22;5599;52.210;21.046;2023-01-25T06:56:21;1.40;1.00
11091;DHT22;5599;52.210;21.046;2023-01-25T06:58:50;1.40;99.90
11091;DHT22;5599;52.210;21.046;2023-01-25T07:01:22;1.40;99.90
11091;DHT22;5599;52.210;21.046;2023-01-25T07:03:56;1.40;69.80
11091;DHT22;5599;52.210;21.046;2023-01-25T07:06:30;1.40;99.90
11091;DHT22;5599;52.210;21.046;2023-01-25T07:09:02;1.40;99.90
11091;DHT22;5599;52.210;21.046;2023-01-25T07:11:32;1.40;1.00
11091;DHT22;5599;52.210;21.046;2023-01-25T07:14:02;1.30;1.00
11091;DHT22;5599;52.210;21.046;2023-01-25T07:16:33;1.20;99.90
11091;DHT22;5599;52.210;21.046;2023-01-25T07:19:06;1.10;99.90
11091;DHT22;5599;52.210;21.046;2023-01-25T07:21:35;1.10;1.00
11091;DHT22;5599;52.210;21.046;2023-01-25T07:24:05;1.20;1.00
11091;DHT22;5599;52.210;21.046;2023-01-25T07:26:34;1.10;1.00
11091;DHT22;5599;52.210;21.046;2023-01-25T07:29:04;1.10;99.90
11091;DHT22;5599;52.210;21.046;2023-01-25T07:31:34;1.00;99.90
11091;DHT22;5599;52.210;21.046;2023-01-25T07:34:04;1.00;1.00
11091;DHT22;5599;52.210;21.046;2023-01-25T07:36:33;1.00;95.80
11091;DHT22;5599;52.210;21.046;2023-01-25T07:39:03;1.10;1.00
11091;DHT22;5599;52.210;21.046;2023-01-25T07:41:32;0.90;99.90
11091;DHT22;5599;52.210;21.046;2023-01-25T07:44:02;1.00;99.90
11091;DHT22;5599;52.210;21.046;2023-01-25T07:46:42;1.10;99.90
11091;DHT22;5599;52.210;21.046;2023-01-25T07:49:11;1.10;99.90
11091;DHT22;5599;52.210;21.046;2023-01-25T07:51:41;1.20;99.90
11091;DHT22;5599;52.210;21.046;2023-01-25T07:54:11;1.20;52.80
11091;DHT22;5599;52.210;21.046;2023-01-25T07:56:40;1.20;1.00
11091;DHT22;5599;52.210;21.046;2023-01-25T07:59:10;1.30;99.90
11091;DHT22;5599;52.210;21.046;2023-01-25T08:01:42;1.30;99.90
11091;DHT22;5599;52.210;21.046;2023-01-25T08:04:12;1.20;99.90
11091;DHT22;5599;52.210;21.046;2023-01-25T08:06:42;1.30;1.00
11091;DHT22;5599;52.210;21.046;2023-01-25T08:09:14;1.30;99.90
11091;DHT22;5599;52.210;21.046;2023-01-25T08:11:46;1.30;99.90
11091;DHT22;5599;52.210;21.046;2023-01-25T08:14:16;1.20;1.00
11091;DHT22;5599;52.210;21.046;2023-01-25T08:16:47;1.30;99.90
11091;DHT22;5599;52.210;21.046;2023-01-25T08:19:17;1.20;1.00
11091;DHT22;5599;52.210;21.046;2023-01-25T08:21:46;1.20;99.90
11091;DHT22;5599;52.210;21.046;2023-01-25T08:24:17;1.20;99.90
11091;DHT22;5599;52.210;21.046;2023-01-25T08:26:47;1.20;99.90
11091;DHT22;5599;52.210;21.046;2023-01-25T08:29:20;1.20;99.90
11091;DHT22;5599;52.210;21.046;2023-01-25T08:31:51;1.20;77.90
11091;DHT22;5599;52.210;21.046;2023-01-25T08:34:21;1.20;1.00
11091;DHT22;5599;52.210;21.046;2023-01-25T08:36:50;1.20;1.00
11091;DHT22;5599;52.210;21.046;2023-01-25T08:39:20;1.20;96.00
11091;DHT22;5599;52.210;21.046;2023-01-25T08:41:49;1.30;99.90
11091;DHT22;5599;52.210;21.046;2023-01-25T08:44:19;1.30;99.90
11091;DHT22;5599;52.210;21.046;2023-01-25T08:46:52;1.30;99.90
11091;DHT22;5599;52.210;21.046;2023-01-25T08:49:21;1.30;99.90
11091;DHT22;5599;52.210;21.046;2023-01-25T08:51:51;1.30;1.00
11091;DHT22;5599;52.210;21.046;2023-01-25T08:54:21;1.30;1.00
11091;DHT22;5599;52.210;21.046;2023-01-25T08:56:51;1.20;71.30
11091;DHT22;5599;52.210;21.046;2023-01-25T08:59:21;1.20;96.80
11091;DHT22;5599;52.210;21.046;2023-01-25T09:01:52;1.30;43.90
11091;DHT22;5599;52.210;21.046;2023-01-25T09:04:23;1.30;99.90
11091;DHT22;5599;52.210;21.046;2023-01-25T09:06:55;1.30;99.90
11091;DHT22;5599;52.210;21.046;2023-01-25T09:09:25;1.40;99.90
11091;DHT22;5599;52.210;21.046;2023-01-25T09:11:56;1.40;26.30
11091;DHT22;5599;52.210;21.046;2023-01-25T09:14:27;1.40;1.00
11091;DHT22;5599;52.210;21.046;2023-01-25T09:16:58;1.40;1.00
11091;DHT22;5599;52.210;21.046;2023-01-25T09:19:27;1.40;99.90
11091;DHT22;5599;52.210;21.046;2023-01-25T09:21:57;1.50;1.00
11091;DHT22;5599;52.210;21.046;2023-01-25T09:24:26;1.40;99.90
11091;DHT22;5599;52.210;21.046;2023-01-25T09:26:56;1.40;1.00
11091;DHT22;5599;52.210;21.046;2023-01-25T09:29:26;1.40;1.00
11091;DHT22;5599;52.210;21.046;2023-01-25T09:31:57;1.50;1.00
11091;DHT22;5599;52.210;21.046;2023-01-25T09:34:31;1.50;42.20
11091;DHT22;5599;52.210;21.046;2023-01-25T09:37:00;1.50;99.90
11091;DHT22;5599;52.210;21.046;2023-01-25T09:39:30;1.50;99.90
11091;DHT22;5599;52.210;21.046;2023-01-25T09:42:22;1.60;99.90
11091;DHT22;5599;52.210;21.046;2023-01-25T09:45:18;1.60;1.00
11091;DHT22;5599;52.210;21.046;2023-01-25T09:47:55;1.60;99.90
11091;DHT22;5599;52.210;21.046;2023-01-25T09:50:35;1.50;1.00
11091;DHT22;5599;52.210;21.046;2023-01-25T09:53:24;1.40;1.00
11091;DHT22;5599;52.210;21.046;2023-01-25T09:55:58;1.40;1.00
11091;DHT22;5599;52.210;21.046;2023-01-25T09:58:32;1.30;1.00
11091;DHT22;5599;52.210;21.046;2023-01-25T10:01:11;1.40;99.90
11091;DHT22;5599;52.210;21.046;2023-01-25T10:03:52;1.40;1.00
11091;DHT22;5599;52.210;21.046;2023-01-25T10:06:28;1.50;97.70
11091;DHT22;5599;52.210;21.046;2023-01-25T10:09:04;1.50;45.10
11091;DHT22;5599;52.210;21.046;2023-01-25T10:11:36;1.60;1.00
11091;DHT22;5599;52.210;21.046;2023-01-25T10:14:12;1.70;1.00
11091;DHT22;5599;52.210;21.046;2023-01-25T10:16:54;1.60;1.00
11091;DHT22;5599;52.210;21.046;2023-01-25T10:19:33;1.60;99.90
11091;DHT22;5599;52.210;21.046;2023-01-25T10:22:12;1.60;92.70
11091;DHT22;5599;52.210;21.046;2023-01-25T10:25:04;1.70;99.90
11091;DHT22;5599;52.210;21.046;2023-01-25T10:27:43;1.80;99.90
11091;DHT22;5599;52.210;21.046;2023-01-25T10:30:25;1.80;1.00
11091;DHT22;5599;52.210;21.046;2023-01-25T10:32:57;1.90;97.80
11091;DHT22;5599;52.210;21.046;2023-01-25T10:35:34;1.90;41.30
11091;DHT22;5599;52.210;21.046;2023-01-25T10:38:16;1.80;1.00
11091;DHT22;5599;52.210;21.046;2023-01-25T10:40:49;1.90;99.90
11091;DHT22;5599;52.210;21.046;2023-01-25T10:43:20;1.90;1.00
11091;DHT22;5599;52.210;21.046;2023-01-25T10:45:50;1.90;1.00
11091;DHT22;5599;52.210;21.046;2023-01-25T10:48:22;1.90;99.90
11091;DHT22;5599;52.210;21.046;2023-01-25T10:50:54;1.90;1.00
11091;DHT22;5599;52.210;21.046;2023-01-25T10:53:27;1.80;1.00
11091;DHT22;5599;52.210;21.046;2023-01-25T10:56:19;1.70;1.00
11091;DHT22;5599;52.210;21.046;2023-01-25T10:58:50;1.70;99.90
11091;DHT22;5599;52.210;21.046;2023-01-25T11:01:30;1.70;96.10
11091;DHT22;5599;52.210;21.046;2023-01-25T11:04:01;1.70;1.00
11091;DHT22;5599;52.210;21.046;2023-01-25T11:06:34;1.70;33.70
11091;DHT22;5599;52.210;21.046;2023-01-25T11:09:32;1.70;99.90
11091;DHT22;5599;52.210;21.046;2023-01-25T11:12:03;1.60;1.00
11091;DHT22;5599;52.210;21.046;2023-01-25T11:14:34;1.60;1.00
11091;DHT22;5599;52.210;21.046;2023-01-25T11:17:04;1.70;1.00
11091;DHT22;5599;52.210;21.046;2023-01-25T11:19:35;1.80;1.00
11091;DHT22;5599;52.210;21.046;2023-01-25T11:22:21;1.80;92.40
11091;DHT22;5599;52.210;21.046;2023-01-25T11:24:53;1.80;99.90
11091;DHT22;5599;52.210;21.046;2023-01-25T11:27:23;1.80;93.00
11091;DHT22;5599;52.210;21.046;2023-01-25T11:30:07;1.90;1.00
11091;DHT22;5599;52.210;21.046;2023-01-25T11:32:38;1.80;99.90
11091;DHT22;5599;52.210;21.046;2023-01-25T11:35:13;1.80;99.90
11091;DHT22;5599;52.210;21.046;2023-01-25T11:38:01;1.80;1.00
11091;DHT22;5599;52.210;21.046;2023-01-25T11:40:36;1.80;51.40
11091;DHT22;5599;52.210;21.046;2023-01-25T11:43:20;1.80;1.00
11091;DHT22;5599;52.210;21.046;2023-01-25T11:46:12;1.90;99.90
11091;DHT22;5599;52.210;21.046;2023-01-25T11:48:56;1.90;1.00
11091;DHT22;5599;52.210;21.046;2023-01-25T11:51:32;2.00;99.90
11091;DHT22;5599;52.210;21.046;2023-01-25T11:54:31;2.00;99.90
11091;DHT22;5599;52.210;21.046;2023-01-25T11:57:14;2.00;99.90
11091;DHT22;5599;52.210;21.046;2023-01-25T12:00:02;2.10;27.30
11091;DHT22;5599;52.210;21.046;2023-01-25T12:03:06;2.10;99.90
11091;DHT22;5599;52.210;21.046;2023-01-25T12:05:52;2.10;92.70
11091;DHT22;5599;52.210;21.046;2023-01-25T12:11:38;2.00;99.90
11091;DHT22;5599;52.210;21.046;2023-01-25T12:14:14;1.90;99.90
11091;DHT22;5599;52.210;21.046;2023-01-25T12:17:00;1.90;99.90
11091;DHT22;5599;52.210;21.046;2023-01-25T12:19:46;1.90;9.40
11091;DHT22;5599;52.210;21.046;2023-01-25T12:22:39;1.90;99.90
11091;DHT22;5599;52.210;21.046;2023-01-25T12:25:20;1.80;1.00
11091;DHT22;5599;52.210;21.046;2023-01-25T12:28:06;1.90;99.90
11091;DHT22;5599;52.210;21.046;2023-01-25T12:30:49;2.00;1.00
11091;DHT22;5599;52.210;21.046;2023-01-25T12:33:23;2.00;1.00
11091;DHT22;5599;52.210;21.046;2023-01-25T12:35:56;2.10;58.60
11091;DHT22;5599;52.210;21.046;2023-01-25T12:38:32;2.00;1.00
11091;DHT22;5599;52.210;21.046;2023-01-25T12:41:10;2.00;99.90
11091;DHT22;5599;52.210;21.046;2023-01-25T12:43:49;2.00;1.00
11091;DHT22;5599;52.210;21.046;2023-01-25T12:46:25;2.00;1.00
11091;DHT22;5599;52.210;21.046;2023-01-25T12:48:59;1.90;1.00
11091;DHT22;5599;52.210;21.046;2023-01-25T12:51:34;1.80;99.90
11091;DHT22;5599;52.210;21.046;2023-01-25T12:54:10;1.80;99.90
11091;DHT22;5599;52.210;21.046;2023-01-25T12:56:47;1.80;99.90
11091;DHT22;5599;52.210;21.046;2023-01-25T12:59:31;1.80;16.20
11091;DHT22;5599;52.210;21.046;2023-01-25T13:02:13;1.90;1.00
11091;DHT22;5599;52.210;21.046;2023-01-25T13:04:58;1.90;1.00
11091;DHT22;5599;52.210;21.046;2023-01-25T13:07:34;1.90;99.90
11091;DHT22;5599;52.210;21.046;2023-01-25T13:10:13;1.90;96.00
11091;DHT22;5599;52.210;21.046;2023-01-25T13:12:52;1.90;99.90
11091;DHT22;5599;52.210;21.046;2023-01-25T13:15:40;1.90;96.80
11091;DHT22;5599;52.210;21.046;2023-01-25T13:18:37;1.90;99.90
11091;DHT22;5599;52.210;21.046;2023-01-25T13:21:37;2.00;99.90
11091;DHT22;5599;52.210;21.046;2023-01-25T13:24:13;2.10;1.00
11091;DHT22;5599;52.210;21.046;2023-01-25T13:26:58;2.00;99.90
11091;DHT22;5599;52.210;21.046;2023-01-25T13:29:56;2.00;99.90
11091;DHT22;5599;52.210;21.046;2023-01-25T13:35:38;2.10;99.90
11091;DHT22;5599;52.210;21.046;2023-01-25T13:38:36;2.10;1.00
11091;DHT22;5599;52.210;21.046;2023-01-25T13:41:11;2.00;1.00
11091;DHT22;5599;52.210;21.046;2023-01-25T13:43:47;2.00;1.00
11091;DHT22;5599;52.210;21.046;2023-01-25T13:46:21;2.00;52.60
11091;DHT22;5599;52.210;21.046;2023-01-25T13:48:57;2.00;1.00
11091;DHT22;5599;52.210;21.046;2023-01-25T13:51:32;2.10;1.00
11091;DHT22;5599;52.210;21.046;2023-01-25T13:54:02;2.20;99.90
11091;DHT22;5599;52.210;21.046;2023-01-25T13:56:33;2.20;99.90
11091;DHT22;5599;52.210;21.046;2023-01-25T13:59:03;2.20;1.00
11091;DHT22;5599;52.210;21.046;2023-01-25T14:01:34;2.20;99.90
11091;DHT22;5599;52.210;21.046;2023-01-25T14:04:04;2.20;1.00
11091;DHT22;5599;52.210;21.046;2023-01-25T14:06:37;2.20;99.90
11091;DHT22;5599;52.210;21.046;2023-01-25T14:09:11;2.10;1.00
11091;DHT22;5599;52.210;21.046;2023-01-25T14:11:52;2.20;99.90
11091;DHT22;5599;52.210;21.046;2023-01-25T14:14:26;2.20;99.90
11091;DHT22;5599;52.210;21.046;2023-01-25T14:17:04;2.30;1.00
11091;DHT22;5599;52.210;21.046;2023-01-25T14:19:40;2.30;99.90
11091;DHT22;5599;52.210;21.046;2023-01-25T14:22:23;2.30;1.00
11091;DHT22;5599;52.210;21.046;2023-01-25T14:25:05;2.30;62.60
11091;DHT22;5599;52.210;21.046;2023-01-25T14:27:41;2.30;1.00
11091;DHT22;5599;52.210;21.046;2023-01-25T14:30:17;2.20;1.00
11091;DHT22;5599;52.210;21.046;2023-01-25T14:32:47;2.10;99.90
11091;DHT22;5599;52.210;21.046;2023-01-25T14:35:42;2.10;1.00
11091;DHT22;5599;52.210;21.046;2023-01-25T14:38:35;2.10;1.00
11091;DHT22;5599;52.210;21.046;2023-01-25T14:41:10;2.10;1.00
11091;DHT22;5599;52.210;21.046;2023-01-25T14:43:42;2.10;99.90
11091;DHT22;5599;52.210;21.046;2023-01-25T14:46:20;2.10;1.00
11091;DHT22;5599;52.210;21.046;2023-01-25T14:48:51;2.10;1.00
11091;DHT22;5599;52.210;21.046;2023-01-25T14:51:25;2.10;1.00
11091;DHT22;5599;52.210;21.046;2023-01-25T14:53:59;2.00;1.00
11091;DHT22;5599;52.210;21.046;2023-01-25T14:56:33;1.90;65.10
11091;DHT22;5599;52.210;21.046;2023-01-25T14:59:04;1.90;99.90
11091;DHT22;5599;52.210;21.046;2023-01-25T15:01:38;1.80;99.90
11091;DHT22;5599;52.210;21.046;2023-01-25T15:04:12;1.80;99.90
11091;DHT22;5599;52.210;21.046;2023-01-25T15:06:49;1.80;99.90
11091;DHT22;5599;52.210;21.046;2023-01-25T15:09:36;1.80;99.90
11091;DHT22;5599;52.210;21.046;2023-01-25T15:12:28;1.80;99.90
11091;DHT22;5599;52.210;21.046;2023-01-25T15:14:59;1.80;99.90
11091;DHT22;5599;52.210;21.046;2023-01-25T15:17:41;1.90;1.00
11091;DHT22;5599;52.210;21.046;2023-01-25T15:20:32;1.90;1.00
11091;DHT22;5599;52.210;21.046;2023-01-25T15:23:21;2.00;1.00
11091;DHT22;5599;52.210;21.046;2023-01-25T15:25:54;2.00;99.90
11091;DHT22;5599;52.210;21.046;2023-01-25T15:28:25;1.90;99.90
11091;DHT22;5599;52.210;21.046;2023-01-25T15:30:55;1.80;99.90
11091;DHT22;5599;52.210;21.046;2023-01-25T15:33:28;1.80;99.90
11091;DHT22;5599;52.210;21.046;2023-01-25T15:35:59;1.80;99.90
11091;DHT22;5599;52.210;21.046;2023-01-25T15:38:29;1.80;99.90
11091;DHT22;5599;52.210;21.046;2023-01-25T15:40:59;1.70;1.00
11091;DHT22;5599;52.210;21.046;2023-01-25T15:43:29;1.80;1.00
11091;DHT22;5599;52.210;21.046;2023-01-25T15:45:59;1.80;1.00
11091;DHT22;5599;52.210;21.046;2023-01-25T15:48:32;1.70;1.00
11091;DHT22;5599;52.210;21.046;2023-01-25T15:51:03;1.70;15.60
11091;DHT22;5599;52.210;21.046;2023-01-25T15:53:33;1.80;78.90
11091;DHT22;5599;52.210;21.046;2023-01-25T15:56:07;1.80;1.00
11091;DHT22;5599;52.210;21.046;2023-01-25T15:58:41;1.80;1.00
11091;DHT22;5599;52.210;21.046;2023-01-25T16:01:11;1.80;1.00
11091;DHT22;5599;52.210;21.046;2023-01-25T16:03:42;1.80;76.60
11091;DHT22;5599;52.210;21.046;2023-01-25T16:06:30;1.80;1.00
11091;DHT22;5599;52.210;21.046;2023-01-25T16:09:04;1.70;1.00
11091;DHT22;5599;52.210;21.046;2023-01-25T16:11:41;1.70;1.00
11091;DHT22;5599;52.210;21.046;2023-01-25T16:14:12;1.70;1.00
11091;DHT22;5599;52.210;21.046;2023-01-25T16:16:44;1.60;1.00
11091;DHT22;5599;52.210;21.046;2023-01-25T16:19:16;1.60;99.90
11091;DHT22;5599;52.210;21.046;2023-01-25T16:21:45;1.60;99.90
11091;DHT22;5599;52.210;21.046;2023-01-25T16:24:17;1.60;1.00
11091;DHT22;5599;52.210;21.046;2023-01-25T16:26:50;1.60;1.00
11091;DHT22;5599;52.210;21.046;2023-01-25T16:29:21;1.60;1.00
11091;DHT22;5599;52.210;21.046;2023-01-25T16:31:52;1.60;1.00
11091;DHT22;5599;52.210;21.046;2023-01-25T16:34:24;1.50;1.00
11091;DHT22;5599;52.210;21.046;2023-01-25T16:36:55;1.50;99.90
11091;DHT22;5599;52.210;21.046;2023-01-25T16:39:27;1.50;99.90
11091;DHT22;5599;52.210;21.046;2023-01-25T16:42:04;1.60;99.90
11091;DHT22;5599;52.210;21.046;2023-01-25T16:44:35;1.60;56.80